Richfield Heights, Ohio
Current Conditions -  °F | °C
As of 4:51 PM on Monday 20 Oct 2014 (Local Time) from KCLE Reporting Station
Overcast Overcast  
Wind Chill: 56°   Ceiling: 4200
Heat Index: 56°   Visibility: 10mi
Dew Point: 46°   Wind: 9mph
Humidity: 69%   Direction: 200°SSW
Pressure: 29.83"   Gusts: NA
Location:  41.2393°N, 81.6428°W
Report Text: KCLE 202051Z 20008KT 10SM SCT034 BKN042 OVC065 13/08 A2983 RMK AO2 SLP104 T01330078 56008
Loading
Personal Weather Stations






























Interactive Weather Map
Tropical Storm Tracking
New forecast layout! Learn more

10-Day Weather Forecast

Advertisements
Track Severe Weather on mobile